createdAt,value
2022-09-18T00:00:58.708Z,2.15
2022-09-18T00:02:00.499Z,2.97
2022-09-18T00:03:02.295Z,1.95
2022-09-18T00:04:07.087Z,4.10
2022-09-18T00:05:09.309Z,3.92
2022-09-18T00:06:17.107Z,3.42
2022-09-18T00:07:19.346Z,4.03
2022-09-18T00:08:21.010Z,1.90
2022-09-18T00:09:23.179Z,2.38
2022-09-18T00:10:24.845Z,2.35
2022-09-18T00:11:29.343Z,2.90
2022-09-18T00:12:31.208Z,5.88
2022-09-18T00:13:34.939Z,4.80
2022-09-18T00:14:36.960Z,3.30
2022-09-18T00:15:38.776Z,3.88
2022-09-18T00:16:41.603Z,6.32
2022-09-18T00:17:43.626Z,2.25
2022-09-18T00:18:45.818Z,3.97
2022-09-18T00:19:47.689Z,3.42
2022-09-18T00:20:49.340Z,4.03
2022-09-18T00:21:52.230Z,4.03
2022-09-18T00:22:53.916Z,3.83
2022-09-18T00:23:58.450Z,11.30
2022-09-18T00:25:00.309Z,5.05
2022-09-18T00:26:02.424Z,4.35
2022-09-18T00:27:04.296Z,6.10
2022-09-18T00:28:06.018Z,4.28
2022-09-18T00:29:07.805Z,4.65
2022-09-18T00:30:10.598Z,4.22
2022-09-18T00:31:18.458Z,5.88
2022-09-18T00:32:20.151Z,13.25
2022-09-18T00:33:21.843Z,6.80
2022-09-18T00:34:23.498Z,12.63
2022-09-18T00:35:25.225Z,16.13
2022-09-18T00:36:27.471Z,4.85
2022-09-18T00:37:29.316Z,5.97
2022-09-18T00:38:34.619Z,4.03
2022-09-18T00:39:36.346Z,5.07
2022-09-18T00:40:38.914Z,6.05
2022-09-18T00:41:43.109Z,5.53
2022-09-18T00:42:45.232Z,5.03
2022-09-18T00:43:46.945Z,6.00
2022-09-18T00:44:49.639Z,3.22
2022-09-18T00:46:08.655Z,3.60
2022-09-18T00:47:10.298Z,6.72
2022-09-18T00:48:12.083Z,7.85
2022-09-18T00:49:27.204Z,5.30
2022-09-18T00:50:28.920Z,5.07
2022-09-18T00:51:34.003Z,5.03
2022-09-18T00:52:47.887Z,3.70
2022-09-18T00:54:30.052Z,2.65
2022-09-18T00:55:40.119Z,3.88
2022-09-18T00:56:42.674Z,8.75
2022-09-18T00:57:51.420Z,6.10
2022-09-18T00:58:53.244Z,6.20
2022-09-18T00:59:55.363Z,5.07
2022-09-18T01:00:57.202Z,2.78
2022-09-18T01:02:01.034Z,2.63
2022-09-18T01:03:02.783Z,3.03
2022-09-18T01:04:04.509Z,3.45
2022-09-18T01:05:08.078Z,7.00
2022-09-18T01:06:28.994Z,3.72
2022-09-18T01:07:52.435Z,4.15
2022-09-18T01:09:06.286Z,5.15
2022-09-18T01:10:21.122Z,4.10
2022-09-18T01:11:51.134Z,3.00
2022-09-18T01:12:56.855Z,4.88
2022-09-18T01:14:25.805Z,8.05
2022-09-18T01:16:05.078Z,5.22
2022-09-18T01:17:21.130Z,11.43
2022-09-18T01:18:38.843Z,18.45
2022-09-18T01:19:59.180Z,18.92
2022-09-18T01:21:09.978Z,16.80
2022-09-18T01:22:33.348Z,30.90
2022-09-18T01:23:34.941Z,16.83
2022-09-18T01:25:03.097Z,26.23
2022-09-18T01:26:14.458Z,32.50
2022-09-18T01:27:30.762Z,42.35
2022-09-18T01:28:39.896Z,37.58
2022-09-18T01:29:57.090Z,20.60
2022-09-18T01:31:06.385Z,19.88
2022-09-18T01:32:20.042Z,16.58
2022-09-18T01:33:28.612Z,18.50
2022-09-18T01:34:48.649Z,14.38
2022-09-18T01:35:55.871Z,10.43
2022-09-18T01:37:13.647Z,11.85
2022-09-18T01:38:28.691Z,10.85
2022-09-18T01:39:53.289Z,16.15
2022-09-18T01:41:14.108Z,9.50
2022-09-18T01:42:18.971Z,8.63
2022-09-18T01:43:22.293Z,8.32
2022-09-18T01:44:29.432Z,11.65
2022-09-18T01:45:39.253Z,10.30
2022-09-18T01:46:44.378Z,11.32
2022-09-18T01:47:55.083Z,14.00
2022-09-18T01:49:12.908Z,12.18
2022-09-18T01:50:15.712Z,13.02
2022-09-18T01:51:22.700Z,13.55
2022-09-18T01:52:31.232Z,16.52
2022-09-18T01:53:39.893Z,20.95
2022-09-18T01:54:45.098Z,24.13
2022-09-18T01:55:56.003Z,26.30
2022-09-18T01:57:28.852Z,26.88
2022-09-18T01:58:34.362Z,31.33
2022-09-18T02:00:05.024Z,31.15
2022-09-18T02:01:13.333Z,31.80
2022-09-18T02:02:29.754Z,32.75
2022-09-18T02:03:41.501Z,31.73
2022-09-18T02:04:46.659Z,30.55
2022-09-18T02:06:16.684Z,34.28
2022-09-18T02:07:48.543Z,28.27
2022-09-18T02:08:54.358Z,25.50
2022-09-18T02:09:58.580Z,25.95
2022-09-18T02:11:06.670Z,27.38
2022-09-18T02:12:12.206Z,24.85
2022-09-18T02:13:17.210Z,27.85
2022-09-18T02:14:31.959Z,22.98
2022-09-18T02:15:38.789Z,22.92
2022-09-18T02:16:46.845Z,26.38
2022-09-18T02:17:56.587Z,23.77
2022-09-18T02:19:04.118Z,27.77
2022-09-18T02:20:21.077Z,21.35
2022-09-18T02:21:32.839Z,22.85
2022-09-18T02:22:35.233Z,26.30
2022-09-18T02:23:39.029Z,24.38
2022-09-18T02:24:45.941Z,23.10
2022-09-18T02:25:56.194Z,25.67
2022-09-18T02:27:00.480Z,23.20
2022-09-18T02:28:04.304Z,27.45
2022-09-18T02:29:08.982Z,29.75
2022-09-18T02:30:12.260Z,25.90
2022-09-18T02:31:14.473Z,27.60
2022-09-18T02:32:16.492Z,24.30
2022-09-18T02:33:26.160Z,23.45
2022-09-18T02:34:29.499Z,22.65
2022-09-18T02:35:41.808Z,24.08
2022-09-18T02:36:43.462Z,22.75
2022-09-18T02:37:48.204Z,22.65
2022-09-18T02:38:56.305Z,25.90
2022-09-18T02:40:16.760Z,20.92
2022-09-18T02:41:40.542Z,29.20
2022-09-18T02:42:51.109Z,23.38
2022-09-18T02:44:07.391Z,24.40
2022-09-18T02:45:33.199Z,26.13
2022-09-18T02:46:47.072Z,23.65
2022-09-18T02:48:07.317Z,24.27
2022-09-18T02:49:31.851Z,24.05
2022-09-18T02:50:51.833Z,27.25
2022-09-18T02:52:16.302Z,25.02
2022-09-18T02:53:20.691Z,24.98
2022-09-18T02:55:27.016Z,23.90
2022-09-18T02:56:41.418Z,21.73
2022-09-18T02:57:49.581Z,26.45
2022-09-18T02:59:10.260Z,23.20
2022-09-18T03:00:17.070Z,23.52
2022-09-18T03:01:22.124Z,23.00
2022-09-18T03:02:25.572Z,20.02
2022-09-18T03:03:30.859Z,21.75
2022-09-18T03:04:32.505Z,19.88
2022-09-18T03:05:34.277Z,21.45
2022-09-18T03:06:35.911Z,21.52
2022-09-18T03:07:37.885Z,17.73
2022-09-18T03:08:39.940Z,21.25
2022-09-18T03:09:42.475Z,18.75
2022-09-18T03:10:44.132Z,21.13
2022-09-18T03:11:45.932Z,16.85
2022-09-18T03:12:47.600Z,17.92
2022-09-18T03:13:49.325Z,14.13
2022-09-18T03:14:51.233Z,16.63
2022-09-18T03:15:55.982Z,13.77
2022-09-18T03:16:57.749Z,21.15
2022-09-18T03:17:59.393Z,12.73
2022-09-18T03:19:01.528Z,15.20
2022-09-18T03:20:06.636Z,14.25
2022-09-18T03:21:08.306Z,14.40
2022-09-18T03:22:10.162Z,13.00
2022-09-18T03:23:11.884Z,12.25
2022-09-18T03:24:13.792Z,15.85
2022-09-18T03:25:15.890Z,12.10
2022-09-18T03:26:18.349Z,11.70
2022-09-18T03:27:20.363Z,11.77
2022-09-18T03:28:22.371Z,9.30
2022-09-18T03:29:24.036Z,8.45
2022-09-18T03:30:25.798Z,7.03
2022-09-18T03:31:27.759Z,8.07
2022-09-18T03:32:29.476Z,8.55
2022-09-18T03:33:31.143Z,7.82
2022-09-18T03:34:32.839Z,8.00
2022-09-18T03:35:34.574Z,6.30
2022-09-18T03:36:36.759Z,6.20
2022-09-18T03:37:38.466Z,7.38
2022-09-18T03:38:41.103Z,5.70
2022-09-18T03:39:43.065Z,8.23
2022-09-18T03:40:47.718Z,5.97
2022-09-18T03:41:49.970Z,6.03
2022-09-18T03:42:51.956Z,5.25
2022-09-18T03:43:53.642Z,5.20
2022-09-18T03:44:57.603Z,4.05
2022-09-18T03:45:59.277Z,5.10
2022-09-18T03:47:01.282Z,3.15
2022-09-18T03:48:03.306Z,7.65
2022-09-18T03:49:05.006Z,7.03
2022-09-18T03:50:07.188Z,4.53
2022-09-18T03:51:08.966Z,7.85
2022-09-18T03:52:10.652Z,2.70
2022-09-18T03:53:12.308Z,3.67
2022-09-18T03:54:14.774Z,9.10
2022-09-18T03:55:16.494Z,4.35
2022-09-18T03:56:18.472Z,5.72
2022-09-18T03:57:20.153Z,5.15
2022-09-18T03:58:21.826Z,4.18
2022-09-18T03:59:23.546Z,4.22
2022-09-18T04:00:25.737Z,6.18
2022-09-18T04:01:27.426Z,3.58
2022-09-18T04:02:29.173Z,2.70
2022-09-18T04:03:31.137Z,2.90
2022-09-18T04:04:33.205Z,3.65
2022-09-18T04:05:35.620Z,4.03
2022-09-18T04:06:37.574Z,2.47
2022-09-18T04:07:39.246Z,4.93
2022-09-18T04:08:41.060Z,2.88
2022-09-18T04:09:42.795Z,3.35
2022-09-18T04:10:46.875Z,4.80
2022-09-18T04:11:48.864Z,4.68
2022-09-18T04:12:50.506Z,3.40
2022-09-18T04:13:52.426Z,4.88
2022-09-18T04:14:55.653Z,3.15
2022-09-18T04:15:57.399Z,3.55
2022-09-18T04:16:59.257Z,3.90
2022-09-18T04:18:01.003Z,2.85
2022-09-18T04:19:03.009Z,2.78
2022-09-18T04:20:05.361Z,4.72
2022-09-18T04:21:07.084Z,3.10
2022-09-18T04:22:08.749Z,5.20
2022-09-18T04:23:12.776Z,1.80
2022-09-18T04:24:14.473Z,6.30
2022-09-18T04:25:17.379Z,2.88
2022-09-18T04:26:19.105Z,2.28
2022-09-18T04:27:20.842Z,2.47
2022-09-18T04:28:22.647Z,0.98
2022-09-18T04:29:24.463Z,1.73
2022-09-18T04:30:26.151Z,2.83
2022-09-18T04:31:28.181Z,2.75
2022-09-18T04:32:29.902Z,2.45
2022-09-18T04:33:31.652Z,1.45
2022-09-18T04:34:33.355Z,3.08
2022-09-18T04:35:35.782Z,5.50
2022-09-18T04:36:37.476Z,4.57
2022-09-18T04:37:39.183Z,2.55
2022-09-18T04:38:40.911Z,1.20
2022-09-18T04:39:42.950Z,1.48
2022-09-18T04:40:44.608Z,1.83
2022-09-18T04:41:46.274Z,2.85
2022-09-18T04:42:47.980Z,5.18
2022-09-18T04:43:49.659Z,3.58
2022-09-18T04:44:51.614Z,1.15
2022-09-18T04:45:54.212Z,1.60
2022-09-18T04:46:56.243Z,1.67
2022-09-18T04:47:57.995Z,3.00
2022-09-18T04:48:59.749Z,2.00
2022-09-18T04:50:01.505Z,1.08
2022-09-18T04:51:03.211Z,2.88
2022-09-18T04:52:04.906Z,3.65
2022-09-18T04:53:06.672Z,4.40
2022-09-18T04:54:09.699Z,2.72
2022-09-18T04:55:11.576Z,2.05
2022-09-18T04:56:13.248Z,2.35
2022-09-18T04:57:15.017Z,1.65
2022-09-18T04:58:18.663Z,1.25
2022-09-18T04:59:20.457Z,4.35
2022-09-18T05:00:22.115Z,1.52
2022-09-18T05:01:23.837Z,3.55
2022-09-18T05:02:25.558Z,4.10
2022-09-18T05:03:27.454Z,1.27
2022-09-18T05:04:29.245Z,2.08
2022-09-18T05:05:31.369Z,2.38
2022-09-18T05:06:33.285Z,2.60
2022-09-18T05:07:35.188Z,2.35
2022-09-18T05:08:37.382Z,6.30
2022-09-18T05:09:39.083Z,6.65
2022-09-18T05:10:42.470Z,1.52
2022-09-18T05:11:44.216Z,2.13
2022-09-18T05:12:46.115Z,1.50
2022-09-18T05:13:52.564Z,2.63
2022-09-18T05:14:54.231Z,3.35
2022-09-18T05:15:57.274Z,1.42
2022-09-18T05:16:59.266Z,4.68
2022-09-18T05:18:11.086Z,4.95
2022-09-18T05:19:13.310Z,2.67
2022-09-18T05:20:15.128Z,3.22
2022-09-18T05:21:17.030Z,1.98
2022-09-18T05:22:18.695Z,3.35
2022-09-18T05:23:20.360Z,2.67
2022-09-18T05:24:22.018Z,2.92
2022-09-18T05:25:27.490Z,1.23
2022-09-18T05:26:31.286Z,1.73
2022-09-18T05:27:33.293Z,1.27
2022-09-18T05:28:34.969Z,5.78
2022-09-18T05:29:37.310Z,0.95
2022-09-18T05:30:39.144Z,3.70
2022-09-18T05:31:42.243Z,2.42
2022-09-18T05:32:44.020Z,1.40
2022-09-18T05:33:45.712Z,1.67
2022-09-18T05:34:49.340Z,1.13
2022-09-18T05:35:54.764Z,1.55
2022-09-18T05:36:56.467Z,4.78
2022-09-18T05:37:58.702Z,1.20
2022-09-18T05:39:00.723Z,1.15
2022-09-18T05:40:02.664Z,2.83
2022-09-18T05:41:04.811Z,0.80
2022-09-18T05:42:06.707Z,0.77
2022-09-18T05:43:09.001Z,4.38
2022-09-18T05:44:10.842Z,1.25
2022-09-18T05:45:13.543Z,0.70
2022-09-18T05:46:15.502Z,0.80
2022-09-18T05:47:17.366Z,1.75
2022-09-18T05:48:19.170Z,1.40
2022-09-18T05:49:25.139Z,0.70
2022-09-18T05:50:28.767Z,6.70
2022-09-18T05:51:35.445Z,3.45
2022-09-18T05:52:37.139Z,1.42
2022-09-18T05:53:38.810Z,1.58
2022-09-18T05:54:40.462Z,1.77
2022-09-18T05:55:43.060Z,0.77
2022-09-18T05:56:44.977Z,3.40
2022-09-18T05:57:46.675Z,0.68
2022-09-18T05:58:48.337Z,1.38
2022-09-18T05:59:49.982Z,4.75
2022-09-18T06:00:52.570Z,2.10
2022-09-18T06:01:54.724Z,2.95
2022-09-18T06:02:57.978Z,1.35
2022-09-18T06:03:59.855Z,3.13
2022-09-18T06:05:01.548Z,1.00
2022-09-18T06:06:03.373Z,2.40
2022-09-18T06:07:05.523Z,1.17
2022-09-18T06:08:10.455Z,1.05
2022-09-18T06:09:12.255Z,2.05
2022-09-18T06:10:14.224Z,1.58
2022-09-18T06:11:15.928Z,5.20
2022-09-18T06:12:17.638Z,2.42
2022-09-18T06:13:19.429Z,0.60
2022-09-18T06:14:21.105Z,4.10
2022-09-18T06:15:22.774Z,0.50
2022-09-18T06:16:24.517Z,3.35
2022-09-18T06:17:26.267Z,2.22
2022-09-18T06:18:28.136Z,1.27
2022-09-18T06:19:30.137Z,3.03
2022-09-18T06:20:31.803Z,1.70
2022-09-18T06:21:33.513Z,1.75
2022-09-18T06:22:36.558Z,1.67
2022-09-18T06:23:38.298Z,2.83
2022-09-18T06:24:39.950Z,1.88
2022-09-18T06:25:41.602Z,6.32
2022-09-18T06:26:43.312Z,1.17
2022-09-18T06:27:45.286Z,4.55
2022-09-18T06:28:47.166Z,0.55
2022-09-18T06:29:48.852Z,0.50
2022-09-18T06:30:50.497Z,1.00
2022-09-18T06:31:52.485Z,1.90
2022-09-18T06:32:54.892Z,6.20
2022-09-18T06:33:56.889Z,5.05
2022-09-18T06:34:58.962Z,0.73
2022-09-18T06:36:01.543Z,1.95
2022-09-18T06:37:03.906Z,3.40
2022-09-18T06:38:07.111Z,3.33
2022-09-18T06:39:08.771Z,2.50
2022-09-18T06:40:10.696Z,2.10
2022-09-18T06:41:12.409Z,1.85
2022-09-18T06:42:14.116Z,0.82
2022-09-18T06:43:16.012Z,5.10
2022-09-18T06:44:17.691Z,2.17
2022-09-18T06:45:19.663Z,1.83
2022-09-18T06:46:21.597Z,3.30
2022-09-18T06:47:23.383Z,1.52
2022-09-18T06:48:25.873Z,2.47
2022-09-18T06:49:27.597Z,3.92
2022-09-18T06:50:29.979Z,0.80
2022-09-18T06:51:31.661Z,0.50
2022-09-18T06:52:33.403Z,3.92
2022-09-18T06:53:35.202Z,3.15
2022-09-18T06:54:36.878Z,1.63
2022-09-18T06:55:38.920Z,1.83
2022-09-18T06:56:41.485Z,0.60
2022-09-18T06:57:43.261Z,1.63
2022-09-18T06:58:45.376Z,1.17
2022-09-18T06:59:47.089Z,2.90
2022-09-18T07:00:48.850Z,1.48
2022-09-18T07:01:50.753Z,4.22
2022-09-18T07:02:56.356Z,3.65
2022-09-18T07:03:58.200Z,2.10
2022-09-18T07:05:00.914Z,2.83
2022-09-18T07:06:02.650Z,5.35
2022-09-18T07:07:04.431Z,0.68
2022-09-18T07:08:06.124Z,3.95
2022-09-18T07:09:07.784Z,0.77
2022-09-18T07:10:10.135Z,0.85
2022-09-18T07:11:11.853Z,1.75
2022-09-18T07:12:13.535Z,0.80
2022-09-18T07:13:15.430Z,2.50
2022-09-18T07:14:17.089Z,2.58
2022-09-18T07:15:20.012Z,2.55
2022-09-18T07:16:21.787Z,1.27
2022-09-18T07:17:26.395Z,2.15
2022-09-18T07:18:28.377Z,2.63
2022-09-18T07:19:30.163Z,1.85
2022-09-18T07:20:32.161Z,0.60
2022-09-18T07:21:34.088Z,0.73
2022-09-18T07:22:35.776Z,0.55
2022-09-18T07:23:37.494Z,1.75
2022-09-18T07:24:39.190Z,0.55
2022-09-18T07:25:40.872Z,3.03
2022-09-18T07:26:42.623Z,0.85
2022-09-18T07:27:44.651Z,0.98
2022-09-18T07:28:46.497Z,1.25
2022-09-18T07:29:48.343Z,1.45
2022-09-18T07:30:49.991Z,1.88
2022-09-18T07:31:51.663Z,1.98
2022-09-18T07:32:53.330Z,1.92
2022-09-18T07:33:55.451Z,1.27
2022-09-18T07:34:57.118Z,1.50
2022-09-18T07:36:02.705Z,0.68
2022-09-18T07:37:04.411Z,2.20
2022-09-18T07:38:07.653Z,4.53
2022-09-18T07:39:09.321Z,0.52
2022-09-18T07:40:12.878Z,4.60
2022-09-18T07:41:14.629Z,0.57
2022-09-18T07:42:16.292Z,1.27
2022-09-18T07:43:18.096Z,0.73
2022-09-18T07:44:19.784Z,0.57
2022-09-18T07:45:21.445Z,1.92
2022-09-18T07:46:23.255Z,0.43
2022-09-18T07:47:25.488Z,2.53
2022-09-18T07:48:27.893Z,2.88
2022-09-18T07:49:29.826Z,0.93
2022-09-18T07:50:32.150Z,0.50
2022-09-18T07:51:33.901Z,2.70
2022-09-18T07:52:35.557Z,3.15
2022-09-18T07:53:37.769Z,2.08
2022-09-18T07:54:39.432Z,1.17
2022-09-18T07:55:45.417Z,1.48
2022-09-18T07:56:47.291Z,1.48
2022-09-18T07:58:00.697Z,0.75
2022-09-18T07:59:02.423Z,1.40
2022-09-18T08:00:04.502Z,1.63
2022-09-18T08:01:07.084Z,1.02
2022-09-18T08:02:08.927Z,2.45
2022-09-18T08:03:14.435Z,2.10
2022-09-18T08:04:16.330Z,0.60
2022-09-18T08:05:18.062Z,0.40
2022-09-18T08:06:20.457Z,0.50
2022-09-18T08:07:24.659Z,0.93
2022-09-18T08:08:26.551Z,1.63
2022-09-18T08:09:28.280Z,1.08
2022-09-18T08:10:30.325Z,0.85
2022-09-18T08:11:32.095Z,1.95
2022-09-18T08:12:34.107Z,3.70
2022-09-18T08:13:35.833Z,0.50
2022-09-18T08:14:37.482Z,1.25
2022-09-18T08:15:41.592Z,3.88
2022-09-18T08:16:43.436Z,0.85
2022-09-18T08:17:46.747Z,0.60
2022-09-18T08:18:49.238Z,0.85
2022-09-18T08:19:51.431Z,2.47
2022-09-18T08:20:56.526Z,0.57
2022-09-18T08:21:58.405Z,1.30
2022-09-18T08:23:02.152Z,1.85
2022-09-18T08:24:04.195Z,3.20
2022-09-18T08:25:06.597Z,0.98
2022-09-18T08:26:08.733Z,1.17
2022-09-18T08:27:10.385Z,1.00
2022-09-18T08:28:12.047Z,1.77
2022-09-18T08:29:19.260Z,5.15
2022-09-18T08:30:21.137Z,1.85
2022-09-18T08:31:22.885Z,1.13
2022-09-18T08:32:24.621Z,1.13
2022-09-18T08:33:26.553Z,1.67
2022-09-18T08:34:28.661Z,0.68
2022-09-18T08:35:32.144Z,0.70
2022-09-18T08:36:34.325Z,3.10
2022-09-18T08:37:36.620Z,0.70
2022-09-18T08:38:38.391Z,1.95
2022-09-18T08:39:40.095Z,0.70
2022-09-18T08:40:50.805Z,2.03
2022-09-18T08:42:14.153Z,2.85
2022-09-18T08:43:21.848Z,3.40
2022-09-18T08:44:45.264Z,0.88
2022-09-18T08:46:02.826Z,3.10
2022-09-18T08:47:15.513Z,1.42
2022-09-18T08:48:24.016Z,2.47
2022-09-18T08:49:33.085Z,0.82
2022-09-18T08:50:39.337Z,1.33
2022-09-18T08:51:58.991Z,1.10
2022-09-18T08:53:10.887Z,1.92
2022-09-18T08:54:23.318Z,1.23
2022-09-18T08:55:30.153Z,4.07
2022-09-18T08:56:34.032Z,3.17
2022-09-18T08:57:49.773Z,3.03
2022-09-18T08:59:00.327Z,1.55
2022-09-18T09:00:12.957Z,0.70
2022-09-18T09:01:19.630Z,1.30
2022-09-18T09:02:30.672Z,1.15
2022-09-18T09:04:46.237Z,1.15
2022-09-18T09:06:32.706Z,2.20
2022-09-18T09:08:11.683Z,1.58
2022-09-18T09:10:03.751Z,1.08
2022-09-18T09:12:33.057Z,1.05
2022-09-18T09:13:57.314Z,9.80
2022-09-18T09:15:01.719Z,1.33
2022-09-18T09:16:34.208Z,1.85
2022-09-18T09:18:08.037Z,2.65
2022-09-18T09:19:41.769Z,1.30
2022-09-18T09:20:52.622Z,1.90
2022-09-18T09:22:07.971Z,1.10
2022-09-18T09:23:54.557Z,2.33
2022-09-18T09:25:25.598Z,1.42
2022-09-18T09:26:28.071Z,1.55
2022-09-18T09:27:37.377Z,1.13
2022-09-18T09:29:00.663Z,2.50
2022-09-18T09:30:07.364Z,0.93
2022-09-18T09:31:11.010Z,1.10
2022-09-18T09:32:36.091Z,2.65
2022-09-18T09:33:50.000Z,1.83
2022-09-18T09:35:01.150Z,1.45
2022-09-18T09:37:22.330Z,1.17
2022-09-18T09:38:53.029Z,1.30
2022-09-18T09:40:00.323Z,1.90
2022-09-18T09:41:27.500Z,0.90
2022-09-18T09:42:39.949Z,0.95
2022-09-18T09:43:55.108Z,1.52
2022-09-18T09:44:59.915Z,2.80
2022-09-18T09:46:11.776Z,1.38
2022-09-18T09:47:20.070Z,2.70
2022-09-18T09:48:35.086Z,2.10
2022-09-18T09:49:50.925Z,1.20
2022-09-18T09:50:55.605Z,0.90
2022-09-18T09:52:06.946Z,3.80
2022-09-18T09:53:12.855Z,0.85
2022-09-18T09:54:14.628Z,1.75
2022-09-18T09:55:29.981Z,2.20
2022-09-18T09:56:49.736Z,0.98
2022-09-18T09:57:54.204Z,1.92
2022-09-18T09:59:08.781Z,2.10
2022-09-18T10:00:18.015Z,0.70
2022-09-18T10:01:28.545Z,4.43
2022-09-18T10:03:00.342Z,2.80
2022-09-18T10:04:23.642Z,1.00
2022-09-18T10:05:50.335Z,3.58
2022-09-18T10:07:16.808Z,1.88
2022-09-18T10:08:31.132Z,1.50
2022-09-18T10:10:02.880Z,2.00
2022-09-18T10:11:11.426Z,2.05
2022-09-18T10:12:32.025Z,3.08
2022-09-18T10:13:40.759Z,1.45
2022-09-18T10:14:46.555Z,1.23
2022-09-18T10:15:51.844Z,0.70
2022-09-18T10:16:56.729Z,2.10
2022-09-18T10:18:02.009Z,2.25
2022-09-18T10:19:04.671Z,1.00
2022-09-18T10:20:07.353Z,4.05
2022-09-18T10:21:21.272Z,2.25
2022-09-18T10:22:23.766Z,4.45
2022-09-18T10:23:33.981Z,1.02
2022-09-18T10:25:01.624Z,3.80
2022-09-18T10:26:03.315Z,3.65
2022-09-18T10:27:13.961Z,2.10
2022-09-18T10:28:16.132Z,1.65
2022-09-18T10:29:18.649Z,2.83
2022-09-18T10:30:20.428Z,1.25
2022-09-18T10:31:22.177Z,0.90
2022-09-18T10:32:38.103Z,2.25
2022-09-18T10:33:45.263Z,2.25
2022-09-18T10:34:49.875Z,3.55
2022-09-18T10:35:54.179Z,1.02
2022-09-18T10:36:55.955Z,4.85
2022-09-18T10:37:59.361Z,1.23
2022-09-18T10:39:01.301Z,0.82
2022-09-18T10:40:04.564Z,2.60
2022-09-18T10:41:11.333Z,4.28
2022-09-18T10:42:18.349Z,1.70
2022-09-18T10:43:20.964Z,2.30
2022-09-18T10:44:31.451Z,1.70
2022-09-18T10:45:41.931Z,3.15
2022-09-18T10:46:57.194Z,1.13
2022-09-18T10:48:13.873Z,1.10
2022-09-18T10:49:23.030Z,1.10
2022-09-18T10:50:24.695Z,0.85
2022-09-18T10:51:28.893Z,1.42
2022-09-18T10:52:40.278Z,3.08
2022-09-18T10:53:42.728Z,2.60
2022-09-18T10:55:02.758Z,3.40
2022-09-18T10:56:15.161Z,2.35
2022-09-18T10:57:48.954Z,1.48
2022-09-18T10:58:50.645Z,2.95
2022-09-18T10:59:52.301Z,2.22
2022-09-18T11:00:58.777Z,1.48
2022-09-18T11:02:04.159Z,2.42
2022-09-18T11:03:23.587Z,1.38
2022-09-18T11:04:27.599Z,0.82
2022-09-18T11:05:30.850Z,1.20
2022-09-18T11:06:35.872Z,1.45
2022-09-18T11:07:40.021Z,2.58
2022-09-18T11:08:46.750Z,4.93
2022-09-18T11:09:49.110Z,2.70
2022-09-18T11:10:55.551Z,4.00
2022-09-18T11:11:57.358Z,2.10
2022-09-18T11:13:02.475Z,3.70
2022-09-18T11:14:06.637Z,1.30
2022-09-18T11:15:17.330Z,2.90
2022-09-18T11:16:28.124Z,2.35
2022-09-18T11:17:33.663Z,3.75
2022-09-18T11:18:35.403Z,1.70
2022-09-18T11:19:39.256Z,3.85
2022-09-18T11:20:43.924Z,3.33
2022-09-18T11:21:47.096Z,2.85
2022-09-18T11:22:49.062Z,1.48
2022-09-18T11:24:02.543Z,1.33
2022-09-18T11:25:15.302Z,3.03
2022-09-18T11:26:28.476Z,1.17
2022-09-18T11:27:44.760Z,2.70
2022-09-18T11:29:20.556Z,3.67
2022-09-18T11:30:31.069Z,1.95
2022-09-18T11:31:43.415Z,2.03
2022-09-18T11:32:46.911Z,1.10
2022-09-18T11:33:55.786Z,3.30
2022-09-18T11:35:02.075Z,2.20
2022-09-18T11:36:08.020Z,0.90
2022-09-18T11:37:14.213Z,1.23
2022-09-18T11:38:20.256Z,5.03
2022-09-18T11:39:27.519Z,2.83
2022-09-18T11:40:33.888Z,1.13
2022-09-18T11:41:39.254Z,2.35
2022-09-18T11:42:46.104Z,2.78
2022-09-18T11:44:00.615Z,1.08
2022-09-18T11:45:38.683Z,1.92
2022-09-18T11:46:40.315Z,1.35
2022-09-18T11:47:47.670Z,0.88
2022-09-18T11:49:03.782Z,11.32
2022-09-18T11:50:18.029Z,1.10
2022-09-18T11:51:31.249Z,1.80
2022-09-18T11:52:38.665Z,1.27
2022-09-18T11:53:44.555Z,3.13
2022-09-18T11:54:52.841Z,1.67
2022-09-18T11:56:03.797Z,0.93
2022-09-18T11:57:16.797Z,1.10
2022-09-18T11:58:26.329Z,3.17
2022-09-18T11:59:49.643Z,1.38
2022-09-18T12:01:05.267Z,2.40
2022-09-18T12:02:22.997Z,3.38
2022-09-18T12:03:30.484Z,1.20
2022-09-18T12:04:53.169Z,1.25
2022-09-18T12:06:04.026Z,1.13
2022-09-18T12:07:38.720Z,2.17
2022-09-18T12:08:43.238Z,3.47
2022-09-18T12:09:56.945Z,1.13
2022-09-18T12:11:10.941Z,2.95
2022-09-18T12:12:29.706Z,1.90
2022-09-18T12:13:45.435Z,2.88
2022-09-18T12:15:03.470Z,1.05
2022-09-18T12:16:14.231Z,1.30
2022-09-18T12:17:23.887Z,3.47
2022-09-18T12:18:31.332Z,4.70
2022-09-18T12:19:38.836Z,3.88
2022-09-18T12:20:45.598Z,4.00
2022-09-18T12:22:01.383Z,1.83
2022-09-18T12:23:03.494Z,2.72
2022-09-18T12:24:11.790Z,1.58
2022-09-18T12:25:15.831Z,2.25
2022-09-18T12:26:30.379Z,1.95
2022-09-18T12:27:43.618Z,1.67
2022-09-18T12:28:57.322Z,1.70
2022-09-18T12:30:17.640Z,3.30
2022-09-18T12:31:40.285Z,2.33
2022-09-18T12:32:47.752Z,6.20
2022-09-18T12:34:01.604Z,4.43
2022-09-18T12:35:15.424Z,2.45
2022-09-18T12:36:41.493Z,5.35
2022-09-18T12:37:58.226Z,4.50
2022-09-18T12:39:19.810Z,2.20
2022-09-18T12:40:27.536Z,3.65
2022-09-18T12:41:56.870Z,2.55
2022-09-18T12:43:10.842Z,2.63
2022-09-18T12:44:12.456Z,3.65
2022-09-18T12:45:32.714Z,3.88
2022-09-18T12:46:37.067Z,1.90
2022-09-18T12:47:41.654Z,4.22
2022-09-18T12:49:01.675Z,2.47
2022-09-18T12:50:12.261Z,5.03
2022-09-18T12:51:26.351Z,2.63
2022-09-18T12:53:08.716Z,3.00
2022-09-18T12:54:11.342Z,4.32
2022-09-18T12:55:47.527Z,3.60
2022-09-18T12:57:21.793Z,3.88
2022-09-18T12:58:29.247Z,2.63
2022-09-18T12:59:54.238Z,5.47
2022-09-18T13:01:02.146Z,2.95
2022-09-18T13:02:20.953Z,2.95
2022-09-18T13:03:33.569Z,9.60
2022-09-18T13:04:46.831Z,4.80
2022-09-18T13:06:13.670Z,2.70
2022-09-18T13:07:25.264Z,5.47
2022-09-18T13:08:32.671Z,3.30
2022-09-18T13:09:50.619Z,3.50
2022-09-18T13:11:09.792Z,4.70
2022-09-18T13:12:28.690Z,3.45
2022-09-18T13:13:57.328Z,2.42
2022-09-18T13:15:25.838Z,5.15
2022-09-18T13:16:50.794Z,6.07
2022-09-18T13:18:04.036Z,3.40
2022-09-18T13:19:30.990Z,3.78
2022-09-18T13:20:42.995Z,4.28
2022-09-18T13:21:46.277Z,2.75
2022-09-18T13:22:53.411Z,3.88
2022-09-18T13:23:57.667Z,3.63
2022-09-18T13:25:00.282Z,2.75
2022-09-18T13:26:04.868Z,4.13
2022-09-18T13:27:18.288Z,6.85
2022-09-18T13:28:22.885Z,3.25
2022-09-18T13:29:52.325Z,3.13
2022-09-18T13:31:14.843Z,7.28
2022-09-18T13:32:37.252Z,4.22
2022-09-18T13:33:39.746Z,5.38
2022-09-18T13:34:50.398Z,3.25
2022-09-18T13:35:56.535Z,3.25
2022-09-18T13:37:06.663Z,3.10
2022-09-18T13:38:20.643Z,3.03
2022-09-18T13:39:37.632Z,2.78
2022-09-18T13:40:57.233Z,2.97
2022-09-18T13:43:33.536Z,3.72
2022-09-18T13:44:36.364Z,3.08
2022-09-18T13:45:38.896Z,5.07
2022-09-18T13:46:42.097Z,3.17
2022-09-18T13:48:06.800Z,5.10
2022-09-18T13:49:29.882Z,4.05
2022-09-18T13:50:34.481Z,3.72
2022-09-18T13:51:37.418Z,3.55
2022-09-18T13:52:43.546Z,4.18
2022-09-18T13:53:45.331Z,6.13
2022-09-18T13:55:15.184Z,3.47
2022-09-18T13:56:17.586Z,3.03
2022-09-18T13:57:20.371Z,5.18
2022-09-18T13:58:38.312Z,2.67
2022-09-18T13:59:54.425Z,4.45
2022-09-18T14:00:58.148Z,3.00
2022-09-18T14:02:02.600Z,3.97
2022-09-18T14:03:07.368Z,4.90
2022-09-18T14:04:40.148Z,2.78
2022-09-18T14:05:42.924Z,2.47
2022-09-18T14:06:45.544Z,2.67
2022-09-18T14:07:57.106Z,3.97
2022-09-18T14:08:58.825Z,2.53
2022-09-18T14:10:06.683Z,3.15
2022-09-18T14:11:15.343Z,3.17
2022-09-18T14:12:18.667Z,3.35
2022-09-18T14:13:23.477Z,1.98
2022-09-18T14:14:26.281Z,2.85
2022-09-18T14:15:28.042Z,4.45
2022-09-18T14:16:40.962Z,2.20
2022-09-18T14:18:03.065Z,4.00
2022-09-18T14:19:20.605Z,3.83
2022-09-18T14:20:22.562Z,2.63
2022-09-18T14:21:29.308Z,2.47
2022-09-18T14:22:34.560Z,2.45
2022-09-18T14:23:36.301Z,2.92
2022-09-18T14:24:37.954Z,1.85
2022-09-18T14:25:47.102Z,5.75
2022-09-18T14:26:58.038Z,2.42
2022-09-18T14:28:05.409Z,1.75
2022-09-18T14:29:16.644Z,2.50
2022-09-18T14:30:27.773Z,3.92
2022-09-18T14:32:33.340Z,2.63
2022-09-18T14:33:35.724Z,3.40
2022-09-18T14:34:42.747Z,1.75
2022-09-18T14:36:00.512Z,2.65
2022-09-18T14:37:27.761Z,2.45
2022-09-18T14:38:35.165Z,1.70
2022-09-18T14:39:38.115Z,2.97
2022-09-18T14:40:40.386Z,1.92
2022-09-18T14:41:42.374Z,2.97
2022-09-18T14:42:44.367Z,2.75
2022-09-18T14:43:50.688Z,3.40
2022-09-18T14:45:10.996Z,1.92
2022-09-18T14:46:21.682Z,2.38
2022-09-18T14:47:26.377Z,2.13
2022-09-18T14:48:29.950Z,3.03
2022-09-18T14:49:43.367Z,3.00
2022-09-18T14:50:45.314Z,1.70
2022-09-18T14:52:03.270Z,2.67
2022-09-18T14:53:25.044Z,2.40
2022-09-18T14:54:28.418Z,2.67
2022-09-18T14:55:38.842Z,3.05
2022-09-18T14:56:40.761Z,2.05
2022-09-18T14:57:51.210Z,3.22
2022-09-18T14:58:53.203Z,4.47
2022-09-18T14:59:58.910Z,2.38
2022-09-18T15:01:03.119Z,2.53